Time;durP1;ratioP1;P1;durP2;ratioP2;P2;SDS_P1;SDS_P2;PMS_P1;PMS_P2;Temp;Humidity;BMP_temperature;BMP_pressure;BME280_temperature;BME280_humidity;BME280_pressure;Samples;Min_cycle;Max_cycle;Signal;HPM_P1;HPM_P2
2023/09/14 00:00:30;;;;;;;4.60;2.13;;;12.50;99.90;;;;;;4988562;28;20053;-79
2023/09/14 00:02:56;;;;;;;5.93;2.20;;;12.50;99.90;;;;;;4984130;28;20134;-80
2023/09/14 00:05:21;;;;;;;3.88;2.10;;;12.40;99.90;;;;;;4990058;28;20096;-79
2023/09/14 00:07:47;;;;;;;4.03;2.03;;;12.40;99.90;;;;;;4989297;28;20045;-79
2023/09/14 00:10:12;;;;;;;5.78;2.25;;;12.40;99.90;;;;;;4994410;28;20512;-79
2023/09/14 00:12:38;;;;;;;6.65;2.47;;;12.40;99.90;;;;;;4993130;28;20041;-80
2023/09/14 00:15:04;;;;;;;7.00;2.22;;;12.40;99.90;;;;;;4993414;28;20044;-80
2023/09/14 00:17:30;;;;;;;5.30;2.00;;;12.40;99.90;;;;;;4993682;28;20038;-80
2023/09/14 00:19:55;;;;;;;4.53;2.03;;;12.40;99.90;;;;;;4991857;28;20051;-79
2023/09/14 00:22:21;;;;;;;4.75;2.10;;;12.40;99.90;;;;;;4992769;28;20038;-80
2023/09/14 00:24:46;;;;;;;5.50;2.08;;;12.40;99.90;;;;;;4989867;28;20050;-79
2023/09/14 00:27:12;;;;;;;6.95;2.50;;;12.40;99.90;;;;;;4990726;28;21288;-80
2023/09/14 00:29:37;;;;;;;4.25;2.20;;;12.40;99.90;;;;;;4994135;28;20034;-79
2023/09/14 00:32:03;;;;;;;6.85;2.38;;;12.40;99.90;;;;;;4990931;28;20058;-80
2023/09/14 00:34:29;;;;;;;3.60;2.10;;;12.50;99.90;;;;;;4992832;28;20060;-79
2023/09/14 00:36:54;;;;;;;3.33;1.98;;;12.50;99.90;;;;;;4992469;28;20298;-80
2023/09/14 00:39:20;;;;;;;4.85;1.92;;;12.60;99.90;;;;;;4992414;28;20616;-79
2023/09/14 00:41:45;;;;;;;3.65;1.73;;;12.60;99.90;;;;;;4975930;28;20046;-79
2023/09/14 00:44:11;;;;;;;3.58;1.90;;;12.60;99.90;;;;;;4992940;28;20042;-79
2023/09/14 00:46:36;;;;;;;3.65;2.00;;;12.70;99.90;;;;;;4992206;28;20502;-79
2023/09/14 00:49:02;;;;;;;2.83;1.38;;;12.60;99.90;;;;;;4991667;28;20040;-79
2023/09/14 00:51:29;;;;;;;6.72;2.40;;;12.70;99.90;;;;;;4991944;28;20042;-79
2023/09/14 00:53:55;;;;;;;7.35;2.22;;;12.70;99.90;;;;;;4991779;28;20098;-79
2023/09/14 00:56:21;;;;;;;3.85;2.20;;;12.70;99.90;;;;;;4991558;28;20052;-80
2023/09/14 00:58:47;;;;;;;4.97;1.90;;;12.80;99.90;;;;;;4990713;28;20039;-79
2023/09/14 01:01:14;;;;;;;5.78;1.88;;;12.70;99.90;;;;;;4991707;28;20433;-79
2023/09/14 01:03:40;;;;;;;3.83;1.80;;;12.70;99.90;;;;;;4992614;28;20046;-79
2023/09/14 01:06:06;;;;;;;6.05;2.10;;;12.70;99.90;;;;;;4991426;28;20038;-80
2023/09/14 01:08:32;;;;;;;5.53;1.75;;;12.70;99.90;;;;;;4991122;28;20516;-79
2023/09/14 01:10:58;;;;;;;5.93;1.80;;;12.70;99.90;;;;;;4990528;28;20051;-79
2023/09/14 01:13:29;;;;;;;8.13;2.00;;;12.60;99.90;;;;;;4990919;28;20590;-79
2023/09/14 01:16:06;;;;;;;3.25;1.70;;;12.60;99.90;;;;;;4975048;28;20050;-79
2023/09/14 01:18:51;;;;;;;5.07;1.80;;;12.60;99.90;;;;;;4987576;28;20142;-79
2023/09/14 01:21:41;;;;;;;4.43;1.70;;;12.60;99.90;;;;;;4989044;28;20074;-79
2023/09/14 01:24:23;;;;;;;4.40;1.80;;;12.70;99.90;;;;;;4991994;28;20074;-79
2023/09/14 01:26:49;;;;;;;6.45;2.05;;;12.70;99.90;;;;;;4990954;28;20042;-79
2023/09/14 01:29:15;;;;;;;4.53;1.95;;;12.70;99.90;;;;;;4990647;28;20038;-79
2023/09/14 01:31:42;;;;;;;3.42;1.92;;;12.80;99.90;;;;;;4989598;28;20061;-79
2023/09/14 01:34:08;;;;;;;3.17;1.55;;;12.80;99.90;;;;;;4991204;28;20038;-79
2023/09/14 01:36:45;;;;;;;4.82;2.15;;;12.90;99.90;;;;;;4990965;28;20042;-79
2023/09/14 01:39:12;;;;;;;6.10;1.90;;;12.80;99.90;;;;;;4990642;28;20506;-79
2023/09/14 01:41:39;;;;;;;7.90;2.25;;;12.80;99.90;;;;;;4990338;28;20117;-80
2023/09/14 01:44:05;;;;;;;5.78;2.00;;;12.80;99.90;;;;;;4991157;28;20070;-79
2023/09/14 01:46:32;;;;;;;6.63;2.30;;;12.90;99.90;;;;;;4991074;28;20035;-79
2023/09/14 01:48:58;;;;;;;3.67;1.98;;;12.80;99.90;;;;;;4990967;28;20087;-79
2023/09/14 01:51:23;;;;;;;4.70;2.10;;;12.70;99.90;;;;;;4991383;28;20061;-80
2023/09/14 01:53:49;;;;;;;4.95;1.90;;;12.70;99.90;;;;;;4986620;28;20047;-80
2023/09/14 01:56:14;;;;;;;4.25;1.90;;;12.60;99.90;;;;;;4991216;28;20493;-80
2023/09/14 01:58:40;;;;;;;8.00;1.98;;;12.60;99.90;;;;;;4990979;28;20062;-79
2023/09/14 02:01:05;;;;;;;5.20;2.00;;;12.50;99.90;;;;;;4990856;28;20049;-79
2023/09/14 02:03:31;;;;;;;3.75;1.67;;;12.40;99.90;;;;;;4990494;28;20049;-79
2023/09/14 02:05:58;;;;;;;5.55;1.80;;;12.40;99.90;;;;;;4991067;28;20054;-79
2023/09/14 02:08:25;;;;;;;4.18;1.92;;;12.30;99.90;;;;;;4989765;28;20045;-79
2023/09/14 02:10:51;;;;;;;3.70;1.80;;;12.30;99.90;;;;;;4990990;28;20045;-80
2023/09/14 02:13:17;;;;;;;4.65;2.13;;;12.20;99.90;;;;;;4990738;28;20038;-79
2023/09/14 02:15:43;;;;;;;3.67;1.90;;;12.10;99.90;;;;;;4991563;28;20125;-80
2023/09/14 02:18:08;;;;;;;4.90;2.00;;;12.10;99.90;;;;;;4990811;28;20038;-79
2023/09/14 02:20:38;;;;;;;4.97;1.92;;;12.10;99.90;;;;;;4989731;28;20141;-79
2023/09/14 02:23:04;;;;;;;3.35;1.67;;;12.00;99.90;;;;;;4990036;28;20046;-79
2023/09/14 02:25:30;;;;;;;5.60;2.10;;;12.00;99.90;;;;;;4989814;28;20038;-80
2023/09/14 02:27:55;;;;;;;3.97;1.90;;;11.90;99.90;;;;;;4990989;28;20048;-79
2023/09/14 02:30:21;;;;;;;6.03;1.98;;;11.90;99.90;;;;;;4990222;28;20030;-79
2023/09/14 02:32:46;;;;;;;3.83;2.03;;;11.80;99.90;;;;;;4991042;28;20038;-80
2023/09/14 02:35:12;;;;;;;5.97;1.98;;;11.80;99.90;;;;;;4990680;28;20379;-79
2023/09/14 02:37:37;;;;;;;5.85;2.10;;;11.70;99.90;;;;;;4985491;28;20129;-79
2023/09/14 02:40:06;;;;;;;4.05;2.22;;;11.70;99.90;;;;;;4989285;28;20062;-79
2023/09/14 02:42:32;;;;;;;6.28;1.92;;;11.60;99.90;;;;;;4990673;28;20042;-79
2023/09/14 02:44:57;;;;;;;4.47;2.50;;;11.60;99.90;;;;;;4990064;28;20073;-80
2023/09/14 02:47:23;;;;;;;4.82;2.10;;;11.50;99.90;;;;;;4990296;28;20068;-80
2023/09/14 02:49:48;;;;;;;4.53;2.22;;;11.50;99.90;;;;;;4989816;28;20041;-80
2023/09/14 02:52:14;;;;;;;5.72;2.25;;;11.50;99.90;;;;;;4990163;28;20414;-79
2023/09/14 02:54:39;;;;;;;4.85;2.10;;;11.40;99.90;;;;;;4991226;28;20042;-80
2023/09/14 02:57:05;;;;;;;3.80;1.92;;;11.30;99.90;;;;;;4989921;28;20034;-80
2023/09/14 02:59:31;;;;;;;4.38;2.10;;;11.30;99.90;;;;;;4990518;28;20057;-80
2023/09/14 03:01:57;;;;;;;7.18;2.50;;;11.30;99.90;;;;;;4990220;28;20497;-80
2023/09/14 03:04:23;;;;;;;5.38;2.15;;;11.30;99.90;;;;;;4989226;28;20042;-80
2023/09/14 03:06:48;;;;;;;3.40;2.05;;;11.20;99.90;;;;;;4988929;28;20081;-79
2023/09/14 03:09:14;;;;;;;3.47;1.77;;;11.20;99.90;;;;;;4989818;28;20394;-80
2023/09/14 03:11:39;;;;;;;5.43;1.88;;;11.10;99.90;;;;;;4990181;28;20533;-80
2023/09/14 03:14:05;;;;;;;5.53;2.22;;;11.10;99.90;;;;;;4989784;28;20050;-79
2023/09/14 03:16:30;;;;;;;3.53;2.15;;;11.00;99.90;;;;;;4990359;28;20049;-79
2023/09/14 03:18:56;;;;;;;5.93;2.00;;;11.00;99.90;;;;;;4973387;28;20129;-79
2023/09/14 03:21:28;;;;;;;4.43;1.95;;;11.00;99.90;;;;;;4990320;28;20051;-80
2023/09/14 03:23:55;;;;;;;5.90;2.00;;;11.00;99.90;;;;;;4989634;28;20038;-79
2023/09/14 03:26:20;;;;;;;4.88;2.30;;;10.90;99.90;;;;;;4988648;28;20049;-80
2023/09/14 03:28:49;;;;;;;2.78;1.85;;;10.90;99.90;;;;;;4989864;28;20042;-79
2023/09/14 03:31:14;;;;;;;6.40;2.10;;;10.90;99.90;;;;;;4989787;28;20073;-80
2023/09/14 03:33:40;;;;;;;4.57;2.30;;;10.80;99.90;;;;;;4990378;28;20121;-79
2023/09/14 03:36:06;;;;;;;6.55;2.03;;;10.90;99.90;;;;;;4989459;28;20048;-79
2023/09/14 03:38:31;;;;;;;6.07;2.50;;;10.80;99.90;;;;;;4989624;28;20044;-79
2023/09/14 03:40:57;;;;;;;6.85;2.95;;;10.80;99.90;;;;;;4990528;28;20047;-80
2023/09/14 03:43:23;;;;;;;3.80;2.33;;;10.80;99.90;;;;;;4990645;28;20493;-80
2023/09/14 03:45:49;;;;;;;6.00;2.50;;;10.80;99.90;;;;;;4993192;28;20034;-79
2023/09/14 03:48:14;;;;;;;5.47;2.17;;;10.80;99.90;;;;;;4995172;28;20442;-80
2023/09/14 03:50:40;;;;;;;5.18;2.20;;;10.80;99.90;;;;;;4990413;28;20145;-80
2023/09/14 03:53:06;;;;;;;3.97;2.13;;;10.80;99.90;;;;;;4992703;28;20129;-79
2023/09/14 03:55:31;;;;;;;3.30;2.10;;;10.80;99.90;;;;;;4993890;28;20030;-80
2023/09/14 03:57:57;;;;;;;5.22;2.20;;;10.80;99.90;;;;;;4993027;28;20038;-80
2023/09/14 04:00:23;;;;;;;5.72;2.67;;;10.70;99.90;;;;;;4995262;28;20133;-80
2023/09/14 04:02:49;;;;;;;5.95;1.98;;;10.70;99.90;;;;;;4994031;28;20050;-80
2023/09/14 04:05:17;;;;;;;5.30;2.35;;;10.70;99.90;;;;;;4992118;28;20046;-80
2023/09/14 04:07:46;;;;;;;4.38;2.20;;;10.70;99.90;;;;;;4984200;28;20070;-80
2023/09/14 04:10:12;;;;;;;5.15;2.45;;;10.70;99.90;;;;;;4994290;28;20070;-80
2023/09/14 04:12:38;;;;;;;3.45;2.20;;;10.60;99.90;;;;;;4976841;28;20088;-80
2023/09/14 04:15:04;;;;;;;4.15;2.33;;;10.60;99.90;;;;;;4993562;28;20069;-80
2023/09/14 04:17:30;;;;;;;4.38;2.20;;;10.50;99.90;;;;;;4997434;28;20502;-80
2023/09/14 04:19:56;;;;;;;3.45;1.83;;;10.50;99.90;;;;;;4994315;28;20052;-81
2023/09/14 04:22:21;;;;;;;4.70;2.15;;;10.50;99.90;;;;;;5009967;28;20493;-80
2023/09/14 04:24:48;;;;;;;4.63;2.22;;;10.40;99.90;;;;;;4993279;28;20046;-80
2023/09/14 04:27:14;;;;;;;5.32;1.80;;;10.40;99.90;;;;;;4992094;28;20567;-80
2023/09/14 04:29:40;;;;;;;3.65;2.20;;;10.40;99.90;;;;;;4992069;28;20049;-81
2023/09/14 04:32:06;;;;;;;5.25;2.15;;;10.40;99.90;;;;;;4993726;28;20034;-80
2023/09/14 04:34:31;;;;;;;4.32;2.13;;;10.40;99.90;;;;;;4992466;28;20039;-80
2023/09/14 04:36:57;;;;;;;4.07;1.95;;;10.30;99.90;;;;;;4976924;28;20038;-80
2023/09/14 04:39:22;;;;;;;4.72;2.10;;;10.30;99.90;;;;;;4994291;28;20494;-81
2023/09/14 04:41:49;;;;;;;4.15;2.40;;;10.20;99.90;;;;;;4997660;28;20161;-80
2023/09/14 04:44:14;;;;;;;5.10;2.10;;;10.20;99.90;;;;;;4999484;28;20031;-80
2023/09/14 04:46:40;;;;;;;4.43;2.40;;;10.20;99.90;;;;;;4993834;28;20051;-81
2023/09/14 04:49:06;;;;;;;6.00;2.50;;;10.20;99.90;;;;;;4992320;28;20049;-81
2023/09/14 04:51:32;;;;;;;5.95;2.08;;;10.20;99.90;;;;;;4991641;28;20065;-81
2023/09/14 04:53:58;;;;;;;4.18;2.20;;;10.20;99.90;;;;;;4990275;28;20030;-80
2023/09/14 04:56:24;;;;;;;4.10;2.28;;;10.20;99.90;;;;;;4993224;28;20049;-80
2023/09/14 04:58:49;;;;;;;4.03;2.15;;;10.10;99.90;;;;;;4993553;28;20050;-81
2023/09/14 05:01:15;;;;;;;4.50;2.40;;;10.10;99.90;;;;;;4993564;28;20417;-80
2023/09/14 05:03:41;;;;;;;4.50;2.33;;;10.00;99.90;;;;;;4993214;28;20042;-80
2023/09/14 05:06:07;;;;;;;5.47;2.58;;;10.00;99.90;;;;;;4991982;28;20049;-80
2023/09/14 05:08:32;;;;;;;5.85;2.70;;;10.00;99.90;;;;;;4997528;28;20038;-81
2023/09/14 05:10:58;;;;;;;4.93;2.47;;;10.00;99.90;;;;;;4995356;28;20046;-80
2023/09/14 05:13:24;;;;;;;6.60;2.55;;;10.00;99.90;;;;;;4977307;28;20038;-81
2023/09/14 05:15:50;;;;;;;6.55;2.17;;;10.00;99.90;;;;;;4993670;28;20514;-80
2023/09/14 05:18:16;;;;;;;5.50;2.78;;;10.00;99.90;;;;;;4993975;28;20050;-80
2023/09/14 05:20:47;;;;;;;7.75;2.58;;;10.00;99.90;;;;;;4977284;28;20065;-81
2023/09/14 05:23:13;;;;;;;3.47;2.72;;;10.00;99.90;;;;;;4994871;28;20042;-80
2023/09/14 05:25:39;;;;;;;6.00;2.08;;;10.00;99.90;;;;;;4989938;28;20070;-80
2023/09/14 05:28:05;;;;;;;6.70;2.80;;;10.00;99.90;;;;;;4991217;28;20034;-81
2023/09/14 05:30:32;;;;;;;6.53;2.53;;;10.00;99.90;;;;;;4992928;28;20062;-80
2023/09/14 05:32:58;;;;;;;12.20;2.80;;;10.00;99.90;;;;;;4990389;28;20053;-80
2023/09/14 05:35:23;;;;;;;5.23;2.97;;;10.00;99.90;;;;;;4939730;28;1038804;-80
2023/09/14 05:37:49;;;;;;;5.65;2.60;;;10.00;99.90;;;;;;4985998;28;20337;-81
2023/09/14 05:40:14;;;;;;;4.47;2.63;;;10.10;99.90;;;;;;4990911;28;20100;-81
2023/09/14 05:42:41;;;;;;;6.53;2.67;;;10.10;99.90;;;;;;4971221;28;20045;-80
2023/09/14 05:45:09;;;;;;;5.65;2.65;;;10.20;99.90;;;;;;4972849;28;20037;-81
2023/09/14 05:47:35;;;;;;;5.70;2.70;;;10.30;99.90;;;;;;5010196;28;20048;-80
2023/09/14 05:50:01;;;;;;;3.97;2.45;;;10.30;99.90;;;;;;4993785;28;20421;-81
2023/09/14 05:52:26;;;;;;;5.30;2.50;;;10.40;99.90;;;;;;4990546;28;20041;-81
2023/09/14 05:54:52;;;;;;;6.90;2.60;;;10.50;99.90;;;;;;4990373;28;20560;-81
2023/09/14 05:57:18;;;;;;;6.47;2.50;;;10.50;99.90;;;;;;4992153;28;20045;-81
2023/09/14 05:59:43;;;;;;;5.38;2.70;;;10.60;99.90;;;;;;5005305;28;20050;-81
2023/09/14 06:02:09;;;;;;;6.03;2.40;;;10.70;99.90;;;;;;4996472;28;20038;-80
2023/09/14 06:04:34;;;;;;;6.30;2.17;;;10.70;99.90;;;;;;4996037;28;20100;-82
2023/09/14 06:07:00;;;;;;;6.65;2.40;;;10.70;99.90;;;;;;4990943;28;20125;-74
2023/09/14 06:09:26;;;;;;;5.50;2.47;;;10.80;99.90;;;;;;4991104;28;20027;-80
2023/09/14 06:11:52;;;;;;;5.68;2.25;;;10.80;99.90;;;;;;4988727;28;20903;-79
2023/09/14 06:14:18;;;;;;;5.72;2.45;;;10.90;99.90;;;;;;4987096;28;20046;-79
2023/09/14 06:16:44;;;;;;;4.95;2.20;;;10.90;99.90;;;;;;4990723;28;20038;-80
2023/09/14 06:19:09;;;;;;;5.03;2.25;;;11.00;99.90;;;;;;4989200;28;20047;-80
2023/09/14 06:21:35;;;;;;;6.18;2.20;;;11.00;99.90;;;;;;4992797;28;20042;-79
2023/09/14 06:24:01;;;;;;;4.03;1.85;;;11.10;99.90;;;;;;4992890;28;20045;-80
2023/09/14 06:26:30;;;;;;;6.57;2.22;;;11.10;99.90;;;;;;4985643;28;20379;-80
2023/09/14 06:28:56;;;;;;;5.15;2.08;;;11.10;99.90;;;;;;4989574;28;20502;-79
2023/09/14 06:31:25;;;;;;;6.35;2.10;;;11.20;99.90;;;;;;4988389;28;20034;-79
2023/09/14 06:33:51;;;;;;;6.35;2.10;;;11.20;99.90;;;;;;4988616;28;20046;-80
2023/09/14 06:36:20;;;;;;;4.85;1.92;;;11.30;99.90;;;;;;4986089;28;20034;-78
2023/09/14 06:38:47;;;;;;;6.07;1.85;;;11.40;99.90;;;;;;4988178;28;20409;-79
2023/09/14 06:41:13;;;;;;;5.03;1.85;;;11.40;99.90;;;;;;4991112;28;20038;-79
2023/09/14 06:43:42;;;;;;;5.43;1.80;;;11.50;99.90;;;;;;4976245;28;20485;-79
2023/09/14 06:46:09;;;;;;;2.70;1.80;;;11.50;99.90;;;;;;4991250;28;20034;-79
2023/09/14 06:48:35;;;;;;;4.68;1.98;;;11.60;99.90;;;;;;4989665;28;20034;-79
2023/09/14 06:51:01;;;;;;;5.72;1.90;;;11.70;99.90;;;;;;4988025;28;20046;-79
2023/09/14 06:53:26;;;;;;;7.07;2.08;;;11.70;99.90;;;;;;4989230;28;20041;-79
2023/09/14 06:55:52;;;;;;;9.30;1.88;;;11.90;99.90;;;;;;4991191;28;20049;-79
2023/09/14 06:58:17;;;;;;;4.05;2.00;;;11.90;99.90;;;;;;4991081;28;20065;-79
2023/09/14 07:00:43;;;;;;;5.03;1.75;;;12.00;99.90;;;;;;4990952;28;20042;-79
2023/09/14 07:03:09;;;;;;;3.63;1.83;;;12.20;99.90;;;;;;4988135;28;20046;-79
2023/09/14 07:05:35;;;;;;;5.50;2.00;;;12.30;99.90;;;;;;4988182;28;20070;-79
2023/09/14 07:08:00;;;;;;;5.72;2.08;;;12.50;99.90;;;;;;4989127;28;20059;-79
2023/09/14 07:10:26;;;;;;;4.90;1.58;;;12.60;99.90;;;;;;4989767;28;20030;-81
2023/09/14 07:12:52;;;;;;;7.78;2.25;;;12.80;99.90;;;;;;4990910;28;20161;-75
2023/09/14 07:15:17;;;;;;;5.07;1.63;;;13.00;99.90;;;;;;4989310;28;20674;-77
2023/09/14 07:17:43;;;;;;;4.20;1.67;;;13.10;99.90;;;;;;4989062;28;20042;-77
2023/09/14 07:20:09;;;;;;;4.40;1.73;;;13.30;99.90;;;;;;4990467;28;20049;-76
2023/09/14 07:22:35;;;;;;;5.57;1.77;;;13.50;99.90;;;;;;4989459;28;20050;-76
2023/09/14 07:25:02;;;;;;;7.85;1.55;;;13.60;99.90;;;;;;4989389;28;20054;-78
2023/09/14 07:27:27;;;;;;;3.53;1.40;;;13.80;99.90;;;;;;4989533;28;20116;-77
2023/09/14 07:29:53;;;;;;;3.25;1.48;;;14.00;99.90;;;;;;4987102;28;20070;-77
2023/09/14 07:32:19;;;;;;;2.58;1.48;;;14.10;99.90;;;;;;4985058;28;20186;-77
2023/09/14 07:34:44;;;;;;;4.65;1.75;;;14.30;99.90;;;;;;4986501;28;20548;-78
2023/09/14 07:37:10;;;;;;;4.10;1.40;;;14.40;99.90;;;;;;4989705;28;20556;-76
2023/09/14 07:39:35;;;;;;;5.20;1.40;;;14.60;99.90;;;;;;4990207;28;20106;-77
2023/09/14 07:42:01;;;;;;;7.82;1.45;;;14.70;99.90;;;;;;4990026;28;20089;-77
2023/09/14 07:44:26;;;;;;;4.07;1.30;;;14.90;99.90;;;;;;4990202;28;20516;-77
2023/09/14 07:46:52;;;;;;;6.18;1.52;;;15.00;99.90;;;;;;4989670;28;20070;-76
2023/09/14 07:49:17;;;;;;;5.05;1.25;;;15.10;99.90;;;;;;4974016;28;20525;-77
2023/09/14 07:51:43;;;;;;;3.35;1.38;;;15.40;99.90;;;;;;4989904;28;20043;-77
2023/09/14 07:54:08;;;;;;;6.93;1.23;;;15.50;99.90;;;;;;4990012;28;20042;-77
2023/09/14 07:56:34;;;;;;;3.50;1.38;;;15.60;99.90;;;;;;4989679;28;20497;-77
2023/09/14 07:58:59;;;;;;;4.47;1.33;;;15.70;99.90;;;;;;4984544;28;20251;-76
2023/09/14 08:01:25;;;;;;;3.17;1.25;;;15.90;99.90;;;;;;4990241;28;20034;-77
2023/09/14 08:03:50;;;;;;;5.43;1.13;;;16.00;99.90;;;;;;4989119;28;20046;-77
2023/09/14 08:06:18;;;;;;;2.47;1.10;;;16.20;99.90;;;;;;4987922;28;20042;-77
2023/09/14 08:08:44;;;;;;;3.90;1.30;;;16.30;99.90;;;;;;4981696;28;20100;-76
2023/09/14 08:11:11;;;;;;;3.28;1.00;;;16.40;99.90;;;;;;4988276;28;20066;-77
2023/09/14 08:13:37;;;;;;;2.85;1.23;;;16.50;99.90;;;;;;4984772;28;20050;-77
2023/09/14 08:16:06;;;;;;;5.53;1.77;;;16.70;99.90;;;;;;4986553;28;20050;-77
2023/09/14 08:18:31;;;;;;;4.07;1.30;;;16.80;99.90;;;;;;4988148;28;20050;-77
2023/09/14 08:20:57;;;;;;;6.18;1.60;;;16.80;99.90;;;;;;4987849;28;20049;-77
2023/09/14 08:23:23;;;;;;;3.80;1.33;;;16.90;99.90;;;;;;4987743;28;20037;-77
2023/09/14 08:25:48;;;;;;;4.38;1.17;;;17.00;99.90;;;;;;4987242;28;20100;-78
2023/09/14 08:28:15;;;;;;;9.80;1.73;;;17.10;99.90;;;;;;4989613;28;20036;-77
2023/09/14 08:30:42;;;;;;;3.50;1.10;;;17.20;99.90;;;;;;4993363;28;20035;-77
2023/09/14 08:33:08;;;;;;;7.53;1.70;;;17.40;99.90;;;;;;4993405;28;20117;-77
2023/09/14 08:35:35;;;;;;;6.35;1.67;;;17.50;99.90;;;;;;4992846;28;20189;-77
2023/09/14 08:38:03;;;;;;;5.65;1.85;;;17.60;99.90;;;;;;4993227;28;20042;-76
2023/09/14 08:40:30;;;;;;;7.43;1.83;;;17.70;99.90;;;;;;4980329;28;20633;-77
2023/09/14 08:42:56;;;;;;;7.03;1.40;;;17.70;99.90;;;;;;4993129;28;20053;-77
2023/09/14 08:45:28;;;;;;;6.07;1.80;;;17.80;99.90;;;;;;4992940;28;20045;-77
2023/09/14 08:47:56;;;;;;;5.53;1.70;;;17.80;99.90;;;;;;4992830;28;20038;-77
2023/09/14 08:50:29;;;;;;;6.65;1.52;;;18.00;99.90;;;;;;4993192;28;20406;-77
2023/09/14 08:52:55;;;;;;;7.30;1.60;;;17.90;99.90;;;;;;4992930;28;20560;-75
2023/09/14 08:55:23;;;;;;;3.90;1.20;;;18.00;99.90;;;;;;4993154;28;20034;-77
2023/09/14 08:57:50;;;;;;;6.43;1.38;;;18.00;99.90;;;;;;4992865;28;20054;-77
2023/09/14 09:00:17;;;;;;;7.63;1.70;;;18.00;99.90;;;;;;4993215;28;20038;-79
2023/09/14 09:02:50;;;;;;;5.93;1.40;;;18.00;99.90;;;;;;4994745;28;20056;-79
2023/09/14 09:05:16;;;;;;;5.10;1.73;;;17.90;99.90;;;;;;4993616;28;20039;-78
2023/09/14 09:07:43;;;;;;;8.95;1.65;;;17.80;99.90;;;;;;4976350;28;20042;-77
2023/09/14 09:10:16;;;;;;;10.75;2.00;;;17.70;99.90;;;;;;4992975;28;20096;-77
2023/09/14 09:12:42;;;;;;;3.95;1.40;;;17.70;99.90;;;;;;4993064;28;20395;-77
2023/09/14 09:15:09;;;;;;;5.65;1.20;;;17.80;99.90;;;;;;4992901;28;20046;-78
2023/09/14 09:17:42;;;;;;;7.82;1.60;;;17.80;99.90;;;;;;4992451;28;20034;-77
2023/09/14 09:20:27;;;;;;;4.75;1.48;;;17.90;99.90;;;;;;4993020;28;20042;-77
2023/09/14 09:22:59;;;;;;;5.28;1.40;;;17.90;99.90;;;;;;4992759;28;20042;-75
2023/09/14 09:25:25;;;;;;;8.18;1.50;;;17.90;99.90;;;;;;4994103;28;20053;-76
2023/09/14 09:27:58;;;;;;;5.55;1.60;;;18.00;99.90;;;;;;4992015;28;20058;-76
2023/09/14 09:30:32;;;;;;;6.18;1.63;;;18.10;99.90;;;;;;4992420;28;20118;-75
2023/09/14 09:32:58;;;;;;;4.97;1.60;;;18.10;99.90;;;;;;4992470;28;20081;-76
2023/09/14 09:35:25;;;;;;;4.88;1.50;;;18.10;99.90;;;;;;4992011;28;20042;-75
2023/09/14 09:37:53;;;;;;;6.07;1.60;;;18.20;99.90;;;;;;4991836;28;20562;-76
2023/09/14 09:40:21;;;;;;;6.25;1.27;;;18.40;99.90;;;;;;4990883;28;20049;-75
2023/09/14 09:42:48;;;;;;;5.07;1.17;;;18.40;99.90;;;;;;4992062;28;20070;-75
2023/09/14 09:45:13;;;;;;;4.63;1.45;;;18.50;99.90;;;;;;4991861;28;20053;-75
2023/09/14 09:47:40;;;;;;;4.88;1.55;;;18.50;99.90;;;;;;4991723;28;20494;-75
2023/09/14 09:50:07;;;;;;;4.82;1.20;;;18.60;99.90;;;;;;4992162;28;20095;-76
2023/09/14 09:52:34;;;;;;;4.57;1.40;;;18.60;99.90;;;;;;4986434;28;20038;-75
2023/09/14 09:54:59;;;;;;;6.20;1.48;;;18.70;99.90;;;;;;4992254;28;20453;-74
2023/09/14 09:57:31;;;;;;;5.03;1.40;;;18.80;99.90;;;;;;4991766;28;20142;-77
2023/09/14 09:59:57;;;;;;;6.13;1.50;;;18.90;99.90;;;;;;4992437;28;20054;-77
2023/09/14 10:02:31;;;;;;;3.35;1.45;;;18.70;99.90;;;;;;4991801;28;20038;-76
2023/09/14 10:04:57;;;;;;;9.60;1.52;;;18.60;99.90;;;;;;4991996;28;20042;-76
2023/09/14 10:07:23;;;;;;;4.72;1.30;;;18.40;99.90;;;;;;4992228;28;20088;-76
2023/09/14 10:09:53;;;;;;;5.75;1.42;;;18.50;99.90;;;;;;4975817;28;20034;-76
2023/09/14 10:12:22;;;;;;;3.30;1.50;;;18.60;99.90;;;;;;4991863;28;20129;-76
2023/09/14 10:14:49;;;;;;;4.53;1.63;;;18.70;99.90;;;;;;4992358;28;20073;-76
2023/09/14 10:17:20;;;;;;;5.13;1.48;;;18.90;99.90;;;;;;4991303;28;20092;-77
2023/09/14 10:19:47;;;;;;;5.53;1.55;;;19.10;99.90;;;;;;4991325;28;20034;-74
2023/09/14 10:22:14;;;;;;;5.82;1.50;;;19.20;99.90;;;;;;4991626;28;20121;-74
2023/09/14 10:24:41;;;;;;;4.80;1.58;;;19.30;99.90;;;;;;4991218;28;20121;-74
2023/09/14 10:27:08;;;;;;;6.28;1.65;;;19.50;99.90;;;;;;4990915;28;20046;-74
2023/09/14 10:29:38;;;;;;;8.52;1.70;;;19.50;99.90;;;;;;4991135;28;20035;-74
2023/09/14 10:32:05;;;;;;;4.57;1.70;;;19.40;99.90;;;;;;4991206;28;20449;-74
2023/09/14 10:34:34;;;;;;;4.97;1.90;;;19.40;99.90;;;;;;4991148;28;20042;-74
2023/09/14 10:37:01;;;;;;;6.57;1.90;;;19.20;99.90;;;;;;4990553;28;20121;-73
2023/09/14 10:39:27;;;;;;;5.25;1.63;;;19.00;99.90;;;;;;4989599;28;20057;-73
2023/09/14 10:41:53;;;;;;;6.40;1.50;;;18.70;99.90;;;;;;4990460;28;20042;-73
2023/09/14 10:44:19;;;;;;;7.13;1.80;;;18.50;99.90;;;;;;4991190;28;20125;-73
2023/09/14 10:46:46;;;;;;;5.22;1.75;;;18.50;99.90;;;;;;4990397;28;20134;-73
2023/09/14 10:49:14;;;;;;;6.03;1.80;;;18.70;99.90;;;;;;4990732;28;20084;-73
2023/09/14 10:51:41;;;;;;;6.28;1.80;;;18.90;99.90;;;;;;4990412;28;20043;-74
2023/09/14 10:54:07;;;;;;;4.03;1.50;;;19.20;99.90;;;;;;4990685;28;20133;-74
2023/09/14 10:56:33;;;;;;;7.45;2.05;;;19.30;99.90;;;;;;4990696;28;20503;-74
2023/09/14 10:59:08;;;;;;;5.93;1.80;;;19.50;99.90;;;;;;4990760;28;20078;-74
2023/09/14 11:01:47;;;;;;;6.30;1.95;;;19.60;99.90;;;;;;4990717;28;20034;-73
2023/09/14 11:04:15;;;;;;;5.65;1.92;;;19.60;99.90;;;;;;4990818;28;20513;-74
2023/09/14 11:06:51;;;;;;;5.93;1.63;;;19.80;99.90;;;;;;4990218;28;20065;-74
2023/09/14 11:09:18;;;;;;;5.65;1.70;;;20.00;99.90;;;;;;4990767;28;20034;-74
2023/09/14 11:11:45;;;;;;;9.00;2.00;;;20.30;99.90;;;;;;4974301;28;20144;-74
2023/09/14 11:14:13;;;;;;;8.50;1.90;;;20.40;99.90;;;;;;4990452;28;20065;-74
2023/09/14 11:16:44;;;;;;;6.82;1.50;;;20.50;99.90;;;;;;4990330;28;20050;-74
2023/09/14 11:19:10;;;;;;;5.25;1.83;;;20.70;99.90;;;;;;4990298;28;21034;-73
2023/09/14 11:21:35;;;;;;;6.82;1.70;;;21.00;99.90;;;;;;4990443;28;20045;-73
2023/09/14 11:24:05;;;;;;;8.68;2.15;;;21.20;99.90;;;;;;4990434;28;20048;-74
2023/09/14 11:26:39;;;;;;;6.80;1.75;;;21.20;99.90;;;;;;4973537;28;20062;-75
2023/09/14 11:29:05;;;;;;;;;;;21.30;99.90;;;;;;4990957;28;20071;-74
2023/09/14 11:31:32;;;;;;;6.78;1.90;;;21.30;99.90;;;;;;4990199;28;19938;-75
2023/09/14 11:34:03;;;;;;;5.50;1.88;;;21.20;99.90;;;;;;4990253;28;20045;-74
2023/09/14 11:36:29;;;;;;;6.35;2.00;;;21.00;99.90;;;;;;4988461;28;20141;-74
2023/09/14 11:38:55;;;;;;;4.70;1.65;;;20.80;99.90;;;;;;4987684;28;20501;-74
2023/09/14 11:41:38;;;;;;;6.20;2.00;;;20.60;99.90;;;;;;4990302;28;20125;-74
2023/09/14 11:44:04;;;;;;;4.68;2.03;;;20.30;99.90;;;;;;4988629;28;20050;-74
2023/09/14 11:46:33;;;;;;;6.13;1.60;;;20.10;99.90;;;;;;4989980;28;20406;-74
2023/09/14 11:48:59;;;;;;;7.65;1.67;;;19.90;99.90;;;;;;4989889;28;20118;-74
2023/09/14 11:51:25;;;;;;;4.55;1.48;;;19.80;99.90;;;;;;4985148;28;20074;-74
2023/09/14 11:53:55;;;;;;;6.32;1.83;;;19.60;99.90;;;;;;4986625;28;20081;-74
2023/09/14 11:56:21;;;;;;;6.05;1.63;;;19.60;99.90;;;;;;4982259;28;20553;-75
2023/09/14 11:58:46;;;;;;;6.18;2.15;;;19.60;99.90;;;;;;4989425;28;20129;-74
2023/09/14 12:01:12;;;;;;;5.75;2.22;;;19.80;99.90;;;;;;4989515;28;20038;-75
2023/09/14 12:03:38;;;;;;;5.32;2.13;;;20.10;99.90;;;;;;4990186;28;20049;-75
2023/09/14 12:06:04;;;;;;;5.75;1.80;;;20.60;99.90;;;;;;4993014;28;20046;-74
2023/09/14 12:08:31;;;;;;;8.60;2.08;;;21.00;99.90;;;;;;4987635;28;20065;-74
2023/09/14 12:10:56;;;;;;;4.57;1.65;;;21.40;99.90;;;;;;4984287;28;20034;-74
2023/09/14 12:13:22;;;;;;;4.63;1.67;;;21.60;99.90;;;;;;4990960;28;20106;-76
2023/09/14 12:16:00;;;;;;;6.25;2.10;;;21.70;99.90;;;;;;4990329;28;20042;-74
2023/09/14 12:18:41;;;;;;;6.82;2.17;;;21.90;99.90;;;;;;4991979;28;20129;-75
2023/09/14 12:21:11;;;;;;;4.50;1.80;;;21.90;99.90;;;;;;4991666;28;20362;-74
2023/09/14 12:23:38;;;;;;;7.00;2.25;;;22.10;99.90;;;;;;4992075;28;20117;-73
2023/09/14 12:26:09;;;;;;;4.82;1.60;;;22.30;99.90;;;;;;4991671;28;20038;-74
2023/09/14 12:28:35;;;;;;;7.38;1.95;;;22.50;99.90;;;;;;4993599;28;20071;-73
2023/09/14 12:31:01;;;;;;;5.75;1.95;;;22.40;99.90;;;;;;4986354;28;20045;-74
2023/09/14 12:33:29;;;;;;;4.07;1.40;;;22.60;99.90;;;;;;4990249;28;20559;-74
2023/09/14 12:35:55;;;;;;;7.88;2.20;;;22.70;99.90;;;;;;4990782;28;20046;-73
2023/09/14 12:38:21;;;;;;;4.28;1.67;;;22.30;99.90;;;;;;4991644;28;20121;-74
2023/09/14 12:40:47;;;;;;;5.13;2.00;;;22.10;99.90;;;;;;4984546;28;20077;-74
2023/09/14 12:43:17;;;;;;;5.18;1.70;;;22.10;99.90;;;;;;4992868;28;20065;-74
2023/09/14 12:45:43;;;;;;;4.40;1.98;;;21.90;99.90;;;;;;4987732;28;20512;-74